Time;durP1;ratioP1;P1;durP2;ratioP2;P2;SDS_P1;SDS_P2;PMS_P1;PMS_P2;Temp;Humidity;BMP_temperature;BMP_pressure;BME280_temperature;BME280_humidity;BME280_pressure;Samples;Min_cycle;Max_cycle;Signal;HPM_P1;HPM_P2
2022/06/30 00:00:16;;;;;;;;;25.67;23.33;;;;;23.29;63.16;100860.82;110380;1261;19518;-52
2022/06/30 00:03:02;;;;;;;;;25.00;24.00;;;;;23.38;62.77;100851.64;110473;1262;21645;-54
2022/06/30 00:05:30;;;;;;;;;23.00;22.00;;;;;23.47;62.40;100847.95;110454;1261;22081;-52
2022/06/30 00:07:57;;;;;;;;;23.67;21.33;;;;;23.27;62.91;100843.05;110512;1261;21667;-52
2022/06/30 00:10:25;;;;;;;;;24.00;22.67;;;;;23.27;63.04;100841.27;110472;1261;18724;-54
2022/06/30 00:12:53;;;;;;;;;26.00;22.00;;;;;23.19;63.05;100840.63;110497;1261;18864;-51
2022/06/30 00:15:20;;;;;;;;;30.33;24.00;;;;;23.12;63.42;100838.85;110474;1261;19523;-52
2022/06/30 00:17:48;;;;;;;;;21.00;20.00;;;;;23.02;63.69;100838.35;110543;1261;19072;-51
2022/06/30 00:20:15;;;;;;;;;26.33;24.00;;;;;23.06;63.81;100838.98;110434;1261;18831;-49
2022/06/30 00:22:43;;;;;;;;;26.50;24.50;;;;;23.12;63.48;100841.45;110420;1261;19440;-52
2022/06/30 00:25:10;;;;;;;;;23.67;22.67;;;;;23.08;63.77;100845.87;110475;1262;18808;-50
2022/06/30 00:27:38;;;;;;;;;23.00;20.50;;;;;23.21;63.42;100839.64;110466;1261;18840;-53
2022/06/30 00:30:05;;;;;;;;;25.00;22.00;;;;;23.44;62.78;100834.80;110498;1261;19422;-52
2022/06/30 00:32:32;;;;;;;;;26.67;24.33;;;;;23.48;62.45;100830.08;110498;1262;21720;-50
2022/06/30 00:35:01;;;;;;;;;23.33;22.00;;;;;23.45;62.43;100828.15;110529;1261;18781;-53
2022/06/30 00:37:28;;;;;;;;;26.00;23.50;;;;;23.32;62.80;100819.95;110464;1262;19714;-54
2022/06/30 00:39:56;;;;;;;;;27.00;23.00;;;;;23.32;63.04;100820.80;110492;1261;18908;-52
2022/06/30 00:42:23;;;;;;;;;19.67;19.67;;;;;23.54;62.32;100817.02;110491;1261;18974;-54
2022/06/30 00:44:51;;;;;;;;;25.67;22.33;;;;;23.69;61.89;100817.40;110448;1261;19540;-53
2022/06/30 00:47:18;;;;;;;;;34.33;31.00;;;;;23.73;61.73;100817.02;110449;1262;22481;-53
2022/06/30 00:49:45;;;;;;;;;34.00;29.33;;;;;23.68;61.93;100817.58;110478;1262;18837;-51
2022/06/30 00:52:13;;;;;;;;;34.67;29.67;;;;;23.71;61.70;100817.95;110424;1262;19511;-50
2022/06/30 00:54:41;;;;;;;;;31.67;28.33;;;;;23.59;61.93;100816.91;110467;1261;18708;-53
2022/06/30 00:57:08;;;;;;;;;32.67;27.33;;;;;23.66;61.78;100815.97;110479;1261;18738;-52
2022/06/30 00:59:36;;;;;;;;;29.00;28.00;;;;;23.59;61.84;100816.85;110480;1261;19815;-51
2022/06/30 01:02:03;;;;;;;;;29.00;27.00;;;;;23.61;61.92;100810.02;110526;1261;18774;-51
2022/06/30 01:04:30;;;;;;;;;27.67;25.00;;;;;23.66;61.76;100803.14;110491;1262;20374;-51
2022/06/30 01:06:58;;;;;;;;;27.67;26.33;;;;;23.71;61.61;100805.83;110453;1262;19606;-52
2022/06/30 01:14:55;;;;;;;;;23.50;22.00;;;;;23.27;62.68;100806.17;110449;1261;19464;-52
2022/06/30 01:17:23;;;;;;;;;28.33;26.00;;;;;23.16;62.96;100810.39;110515;1261;21026;-51
2022/06/30 01:19:50;;;;;;;;;29.00;26.33;;;;;23.28;62.80;100806.91;110500;1261;18871;-51
2022/06/30 01:22:32;;;;;;;;;31.67;28.67;;;;;23.34;62.49;100808.30;110456;1261;19436;-51
2022/06/30 01:25:00;;;;;;;;;23.50;23.00;;;;;23.52;62.18;100808.80;110484;1262;18769;-51
2022/06/30 01:27:27;;;;;;;;;27.00;24.00;;;;;23.53;61.90;100807.21;110405;1262;19127;-51
2022/06/30 01:29:54;;;;;;;;;27.00;23.00;;;;;23.49;61.95;100806.79;109954;1262;661005;-52
2022/06/30 01:32:22;;;;;;;;;23.33;20.67;;;;;23.26;62.58;100806.01;110442;1261;18837;-50
2022/06/30 01:34:49;;;;;;;;;25.67;24.00;;;;;23.38;62.52;100805.60;110368;1262;19083;-52
2022/06/30 01:37:17;;;;;;;;;29.00;27.00;;;;;23.54;62.01;100809.48;110489;1261;19464;-51
2022/06/30 01:39:44;;;;;;;;;32.00;29.33;;;;;23.52;61.85;100814.05;110505;1262;18749;-52
2022/06/30 01:42:12;;;;;;;;;39.67;36.33;;;;;23.52;61.77;100816.63;110492;1261;22830;-51
2022/06/30 01:44:39;;;;;;;;;38.33;34.67;;;;;23.49;61.88;100804.05;110474;1261;19584;-50
2022/06/30 01:47:07;;;;;;;;;40.50;37.00;;;;;23.56;61.61;100795.74;110526;1261;19793;-52
2022/06/30 01:49:34;;;;;;;;;37.50;33.00;;;;;23.59;61.71;100795.00;110494;1261;19093;-51
2022/06/30 01:52:02;;;;;;;;;34.00;30.67;;;;;23.62;61.55;100792.26;110471;1262;19623;-51
2022/06/30 01:54:29;;;;;;;;;38.00;34.33;;;;;23.57;61.52;100796.86;110487;1261;19378;-52
2022/06/30 01:56:57;;;;;;;;;33.00;31.00;;;;;23.26;62.17;100803.52;110403;1262;18756;-51
2022/06/30 01:59:24;;;;;;;;;25.33;24.00;;;;;23.08;62.99;100810.45;110491;1261;21127;-55
2022/06/30 02:01:52;;;;;;;;;33.00;29.00;;;;;23.19;62.87;100816.58;110477;1261;22730;-53
2022/06/30 02:07:04;;;;;;;;;27.50;26.50;;;;;23.22;62.70;100832.47;110477;1261;22361;-52
2022/06/30 02:09:32;;;;;;;;;31.50;27.50;;;;;23.05;63.14;100845.98;110474;1262;18682;-52
2022/06/30 02:14:44;;;;;;;;;22.67;21.67;;;;;22.98;63.76;100859.02;110479;1261;21048;-51
2022/06/30 02:17:11;;;;;;;;;29.33;26.33;;;;;23.20;63.10;100859.87;110527;1261;18732;-52
2022/06/30 02:19:39;;;;;;;;;24.00;23.67;;;;;22.98;63.60;100864.54;110447;1261;18952;-49
2022/06/30 02:22:06;;;;;;;;;27.67;24.00;;;;;23.19;63.28;100872.60;110471;1262;20167;-51
2022/06/30 02:24:33;;;;;;;;;27.67;25.33;;;;;23.07;63.56;100883.12;110453;1261;18719;-51
2022/06/30 02:27:01;;;;;;;;;23.67;22.00;;;;;22.92;63.97;100894.43;110393;1261;20187;-50
2022/06/30 02:29:28;;;;;;;;;24.00;23.00;;;;;23.05;63.84;100899.86;110447;1262;19537;-50
2022/06/30 02:31:56;;;;;;;;;26.00;25.67;;;;;22.82;64.28;100908.04;110427;1261;18753;-50
2022/06/30 02:34:23;;;;;;;;;26.00;23.67;;;;;22.73;64.82;100911.23;110465;1262;18864;-52
2022/06/30 02:36:52;;;;;;;;;27.00;22.00;;;;;22.92;64.44;100911.64;110464;1261;19451;-51
2022/06/30 02:39:19;;;;;;;;;22.67;20.33;;;;;23.16;63.73;100908.35;110374;1261;18981;-49
2022/06/30 02:41:46;;;;;;;;;25.67;22.00;;;;;23.11;63.64;100910.92;110423;1261;18877;-52
2022/06/30 02:44:14;;;;;;;;;23.33;22.00;;;;;22.83;64.51;100912.30;110518;1261;21071;-53
2022/06/30 02:46:41;;;;;;;;;23.67;22.67;;;;;22.62;65.15;100906.54;110474;1261;19303;-55
2022/06/30 02:49:09;;;;;;;;;24.00;22.67;;;;;22.80;64.95;100893.04;110452;1262;18912;-54
2022/06/30 02:51:36;;;;;;;;;28.67;25.67;;;;;22.86;64.52;100895.54;110458;1261;19690;-51
2022/06/30 02:54:04;;;;;;;;;35.00;32.00;;;;;22.84;64.64;100900.91;110503;1261;21848;-51
2022/06/30 02:56:31;;;;;;;;;40.33;36.33;;;;;22.90;64.33;100911.67;110477;1262;18869;-52
2022/06/30 02:58:59;;;;;;;;;36.33;34.33;;;;;22.91;64.36;100920.86;110499;1260;19449;-54
2022/06/30 03:01:26;;;;;;;;;31.50;28.50;;;;;22.71;64.80;100933.80;110501;1261;18732;-51
2022/06/30 03:03:53;;;;;;;;;34.67;32.00;;;;;22.53;65.39;100947.45;110483;1262;19360;-52
2022/06/30 03:06:21;;;;;;;;;33.33;30.33;;;;;22.50;65.56;100948.88;110490;1262;19734;-51
2022/06/30 03:08:48;;;;;;;;;30.50;29.00;;;;;22.36;66.02;100958.20;110383;1262;19003;-50
2022/06/30 03:11:17;;;;;;;;;31.00;30.67;;;;;22.36;66.31;100950.26;110517;1262;18894;-51
2022/06/30 03:13:45;;;;;;;;;31.00;30.00;;;;;22.42;66.12;100930.15;110457;1261;21210;-52
2022/06/30 03:16:12;;;;;;;;;31.00;28.00;;;;;22.57;65.85;100927.65;110465;1262;18911;-51
2022/06/30 03:18:40;;;;;;;;;29.00;26.67;;;;;22.85;64.80;100931.39;110483;1261;19846;-54
2022/06/30 03:21:07;;;;;;;;;30.00;25.00;;;;;22.92;64.63;100944.82;110458;1262;19495;-51
2022/06/30 03:23:35;;;;;;;;;30.00;29.00;;;;;23.07;64.06;100957.86;110484;1262;18749;-50
2022/06/30 03:26:02;;;;;;;;;49.67;40.00;;;;;22.83;64.50;100974.82;110496;1261;19030;-52
2022/06/30 03:28:30;;;;;;;;;51.33;39.67;;;;;22.55;65.65;100993.16;110469;1262;19533;-51
2022/06/30 03:30:57;;;;;;;;;47.00;39.00;;;;;22.56;65.68;101003.35;110469;1261;18811;-52
2022/06/30 03:33:25;;;;;;;;;36.33;33.67;;;;;22.50;65.74;101010.94;110481;1261;18901;-51
2022/06/30 03:35:52;;;;;;;;;41.00;34.00;;;;;22.64;65.56;101008.62;110471;1262;19489;-50
2022/06/30 03:38:20;;;;;;;;;30.33;26.00;;;;;22.94;64.79;101006.98;110489;1261;19107;-51
2022/06/30 03:40:47;;;;;;;;;32.33;31.00;;;;;22.95;64.60;101018.45;110472;1261;18998;-50
2022/06/30 03:43:16;;;;;;;;;40.00;35.00;;;;;22.63;65.39;101037.69;110455;1261;19867;-52
2022/06/30 03:45:44;;;;;;;;;43.00;34.00;;;;;22.48;66.24;101048.17;110479;1261;18984;-51
2022/06/30 03:48:11;;;;;;;;;32.50;29.50;;;;;22.46;66.38;101060.31;110489;1261;19018;-50
2022/06/30 03:50:39;;;;;;;;;36.67;30.00;;;;;22.30;66.95;101080.17;110411;1262;21792;-49
2022/06/30 03:53:06;;;;;;;;;31.00;27.00;;;;;22.48;66.75;101093.02;110444;1261;20296;-51
2022/06/30 03:55:38;;;;;;;;;31.67;27.00;;;;;22.68;66.11;101088.34;110459;1262;18887;-47
2022/06/30 03:58:06;;;;;;;;;27.67;27.00;;;;;22.95;65.35;101091.67;110416;1261;20847;-50
2022/06/30 04:00:34;;;;;;;;;26.33;25.00;;;;;23.11;65.04;101090.13;110399;1261;18755;-52
2022/06/30 04:03:02;;;;;;;;;31.33;28.33;;;;;23.18;64.80;101049.84;110449;1261;19416;-49
2022/06/30 04:05:29;;;;;;;;;35.33;32.00;;;;;23.24;64.82;101044.69;110474;1260;19523;-52
2022/06/30 04:07:57;;;;;;;;;39.00;30.00;;;;;23.24;64.85;101053.16;110511;1261;18767;-54
2022/06/30 04:10:24;;;;;;;;;38.33;36.00;;;;;23.23;65.20;101048.38;110262;1262;18872;-50
2022/06/30 04:12:52;;;;;;;;;38.67;32.00;;;;;23.19;65.65;101034.48;110468;1262;19376;-50
2022/06/30 04:15:19;;;;;;;;;36.67;34.67;;;;;23.16;66.18;101019.80;110484;1262;18735;-50
2022/06/30 04:17:46;;;;;;;;;36.67;30.67;;;;;23.16;66.38;101003.02;110379;1262;19037;-50
2022/06/30 04:20:17;;;;;;;;;36.00;30.67;;;;;23.22;66.36;100979.76;110501;1261;19616;-51
2022/06/30 04:22:45;;;;;;;;;34.00;31.00;;;;;23.40;65.90;100976.30;110442;1261;18801;-51
2022/06/30 04:25:12;;;;;;;;;32.00;28.00;;;;;23.47;65.75;100955.54;110456;1261;19132;-51
2022/06/30 04:27:40;;;;;;;;;30.67;27.67;;;;;23.48;65.85;100926.42;110415;1262;21175;-51
2022/06/30 04:30:07;;;;;;;;;35.00;30.33;;;;;23.45;66.05;100912.70;110484;1262;18829;-49
2022/06/30 04:32:43;;;;;;;;;31.00;26.67;;;;;23.44;66.29;100908.58;110447;1261;18815;-51
2022/06/30 04:35:11;;;;;;;;;30.50;27.00;;;;;23.43;66.34;100900.86;110461;1262;19543;-51
2022/06/30 04:37:38;;;;;;;;;32.33;27.33;;;;;23.32;66.81;100889.81;110425;1262;18782;-49
2022/06/30 04:42:56;;;;;;;;;29.00;26.33;;;;;23.04;68.05;100859.69;110004;1268;19597;-51
2022/06/30 04:45:23;;;;;;;;;30.33;27.67;;;;;22.79;69.04;100843.97;109920;1267;18748;-50
2022/06/30 04:47:51;;;;;;;;;29.00;26.00;;;;;22.76;69.66;100821.88;109956;1268;19032;-49
2022/06/30 04:50:18;;;;;;;;;34.00;30.33;;;;;22.95;69.26;100785.05;110106;1268;19507;-49
2022/06/30 04:52:46;;;;;;;;;30.33;26.00;;;;;23.16;68.46;100746.02;110084;1267;18783;-50
2022/06/30 04:55:13;;;;;;;;;30.00;27.00;;;;;23.44;67.78;100731.91;110099;1268;18875;-50
2022/06/30 04:57:40;;;;;;;;;27.00;26.00;;;;;23.55;67.38;100748.97;110032;1267;22081;-47
2022/06/30 05:00:08;;;;;;;;;29.67;26.33;;;;;23.72;66.81;100751.90;110084;1267;18823;-51
2022/06/30 05:02:35;;;;;;;;;27.67;26.33;;;;;23.86;66.44;100739.77;110109;1268;22881;-51
2022/06/30 05:05:03;;;;;;;;;33.67;27.00;;;;;23.93;66.31;100744.09;110112;1267;19555;-53
2022/06/30 05:07:30;;;;;;;;;26.50;26.00;;;;;23.95;66.17;100779.66;110061;1268;18785;-50
2022/06/30 05:09:57;;;;;;;;;27.00;25.00;;;;;23.89;66.43;100795.59;110026;1268;18895;-53
2022/06/30 05:12:25;;;;;;;;;31.67;27.33;;;;;23.79;66.64;100804.18;109981;1267;19568;-50
2022/06/30 05:14:52;;;;;;;;;27.33;26.00;;;;;23.79;66.43;100813.25;109952;1268;23688;-53
2022/06/30 05:17:20;;;;;;;;;26.33;24.00;;;;;23.78;66.65;100830.53;110039;1267;18890;-51
2022/06/30 05:19:47;;;;;;;;;23.33;23.00;;;;;23.71;66.59;100841.09;110171;1262;19824;-51
2022/06/30 05:22:15;;;;;;;;;24.00;22.33;;;;;23.69;66.68;100831.15;110425;1262;18813;-49
2022/06/30 05:27:28;;;;;;;;;24.00;22.67;;;;;23.94;65.67;100815.31;110426;1262;19435;-52
2022/06/30 05:29:55;;;;;;;;;27.00;24.50;;;;;24.07;65.33;100808.41;110478;1261;18735;-50
2022/06/30 05:32:23;;;;;;;;;26.33;24.33;;;;;24.06;65.21;100814.03;110486;1262;18794;-52
2022/06/30 05:34:50;;;;;;;;;27.00;24.33;;;;;24.00;66.02;100825.30;110398;1262;19705;-51
2022/06/30 05:37:18;;;;;;;;;26.00;25.67;;;;;23.94;66.22;100834.11;110439;1261;18750;-50
2022/06/30 05:41:18;;;;;;;;;32.33;32.00;;;;;23.94;66.75;100822.95;106895;1303;19292;-49
2022/06/30 05:43:46;;;;;;;;;29.33;26.00;;;;;23.92;66.58;100808.68;108602;1278;18484;-50
2022/06/30 05:46:13;;;;;;;;;26.00;23.50;;;;;23.94;66.52;100794.38;108558;1280;19015;-50
2022/06/30 05:48:41;;;;;;;;;26.50;25.00;;;;;24.08;65.88;100781.62;108527;1280;18406;-52
2022/06/30 05:51:08;;;;;;;;;27.67;26.33;;;;;24.18;65.59;100782.71;108571;1278;18540;-55
2022/06/30 05:53:36;;;;;;;;;21.33;20.67;;;;;24.17;65.78;100775.53;109001;1273;19770;-52
2022/06/30 05:56:03;;;;;;;;;30.50;29.50;;;;;24.17;65.78;100771.24;109065;1271;307823;-50
2022/06/30 05:58:30;;;;;;;;;23.67;22.00;;;;;24.16;65.87;100761.05;109167;1271;20126;-50
2022/06/30 06:00:58;;;;;;;;;31.00;27.00;;;;;24.15;66.07;100750.80;109237;1272;18754;-57
2022/06/30 06:03:25;;;;;;;;;26.67;26.33;;;;;24.15;66.23;100743.42;109206;1272;18201;-49
2022/06/30 06:05:53;;;;;;;;;26.00;25.00;;;;;24.05;66.38;100743.30;109300;1272;18641;-51
2022/06/30 06:08:21;;;;;;;;;26.00;25.67;;;;;23.94;66.81;100743.22;109340;1272;18813;-50
2022/06/30 06:10:48;;;;;;;;;25.00;24.00;;;;;23.97;67.28;100746.32;109815;1268;18248;-50
2022/06/30 06:13:16;;;;;;;;;28.50;28.50;;;;;23.98;67.34;100741.89;109844;1268;18638;-50
2022/06/30 06:15:43;;;;;;;;;31.00;26.67;;;;;24.01;67.35;100738.51;109749;1268;18784;-50
2022/06/30 06:18:11;;;;;;;;;33.00;30.00;;;;;24.03;67.50;100742.45;109814;1268;21602;-50
2022/06/30 06:20:39;;;;;;;;;30.00;26.50;;;;;24.09;67.31;100750.08;109539;1268;18536;-52
2022/06/30 06:23:06;;;;;;;;;28.50;27.50;;;;;24.09;67.47;100750.96;109766;1268;18778;-55
2022/06/30 06:25:34;;;;;;;;;32.33;30.00;;;;;24.02;68.01;100746.39;109764;1268;18307;-56
2022/06/30 06:30:46;;;;;;;;;28.67;27.00;;;;;24.04;68.63;100740.14;109548;1270;18821;-50
2022/06/30 06:33:14;;;;;;;;;35.00;29.00;;;;;23.66;69.71;100734.98;109630;1269;18212;-51
2022/06/30 06:35:41;;;;;;;;;31.67;28.67;;;;;23.26;71.47;100730.06;109853;1268;19362;-48
2022/06/30 06:38:09;;;;;;;;;31.67;27.67;;;;;23.18;72.11;100735.44;109569;1270;18792;-51
2022/06/30 06:40:36;;;;;;;;;25.00;23.00;;;;;23.46;71.45;100735.04;109811;1268;19228;-50
2022/06/30 06:43:04;;;;;;;;;30.00;26.00;;;;;23.86;70.13;100735.39;109837;1268;18622;-51
2022/06/30 06:45:31;;;;;;;;;26.00;24.33;;;;;24.01;69.61;100739.64;109657;1268;18815;-51
2022/06/30 06:47:59;;;;;;;;;24.67;23.67;;;;;24.12;68.98;100740.95;109831;1268;18277;-50
2022/06/30 06:50:26;;;;;;;;;29.00;27.67;;;;;24.09;69.02;100742.63;109706;1268;18526;-51
2022/06/30 06:52:53;;;;;;;;;31.00;24.50;;;;;23.99;69.29;100744.56;109674;1268;20293;-49
2022/06/30 06:55:21;;;;;;;;;28.00;27.00;;;;;23.94;69.71;100740.52;109803;1267;18418;-50
2022/06/30 06:57:48;;;;;;;;;31.50;28.00;;;;;23.78;70.39;100745.39;109638;1268;18673;-51
2022/06/30 07:00:17;;;;;;;;;25.00;24.00;;;;;23.80;70.54;100746.30;109741;1268;18764;-52
2022/06/30 07:02:44;;;;;;;;;29.67;27.33;;;;;23.95;70.15;100751.87;109471;1270;18264;-54
2022/06/30 07:05:12;;;;;;;;;29.00;26.33;;;;;23.95;70.16;100758.98;109703;1268;20113;-48
2022/06/30 07:07:40;;;;;;;;;34.67;30.67;;;;;23.72;70.80;100768.84;109729;1267;18810;-54
2022/06/30 07:10:07;;;;;;;;;27.50;27.50;;;;;23.60;71.43;100772.84;109749;1268;18282;-50
2022/06/30 07:12:35;;;;;;;;;34.00;30.50;;;;;23.41;71.98;100774.83;109696;1268;18969;-51
2022/06/30 07:15:02;;;;;;;;;29.00;26.67;;;;;23.38;72.21;100774.59;109689;1268;19227;-50
2022/06/30 07:17:29;;;;;;;;;29.00;27.00;;;;;23.42;72.30;100766.17;109756;1268;22144;-52
2022/06/30 07:19:57;;;;;;;;;35.00;30.50;;;;;23.54;72.09;100770.13;109649;1268;19009;-48
2022/06/30 07:22:24;;;;;;;;;26.00;25.00;;;;;23.36;72.17;100769.68;109739;1268;19594;-48
2022/06/30 07:24:52;;;;;;;;;32.00;29.00;;;;;23.50;72.04;100771.06;109757;1268;18285;-48
2022/06/30 07:27:19;;;;;;;;;26.00;24.67;;;;;23.77;71.20;100774.40;109746;1268;22706;-51
2022/06/30 07:29:47;;;;;;;;;27.33;25.67;;;;;23.82;70.96;100787.16;109794;1268;19332;-51
2022/06/30 07:32:15;;;;;;;;;28.67;25.33;;;;;23.67;71.40;100787.98;109734;1268;18296;-49
2022/06/30 07:34:42;;;;;;;;;26.33;26.00;;;;;23.70;71.51;100793.10;109718;1268;18691;-49
2022/06/30 07:40:14;;;;;;;;;29.00;27.00;;;;;23.57;71.27;100790.80;109571;1270;18276;-50
2022/06/30 07:42:42;;;;;;;;;33.00;29.50;;;;;23.55;71.66;100783.11;109650;1268;18715;-50
2022/06/30 07:45:10;;;;;;;;;27.00;26.00;;;;;23.71;71.15;100784.73;109601;1268;18701;-50
2022/06/30 07:47:39;;;;;;;;;28.67;24.67;;;;;23.71;71.00;100780.31;109850;1268;18201;-53
2022/06/30 07:50:06;;;;;;;;;29.33;25.67;;;;;23.86;70.74;100781.09;109835;1268;18623;-51
2022/06/30 07:52:34;;;;;;;;;24.33;24.33;;;;;23.90;70.60;100783.19;109555;1270;19095;-51
2022/06/30 07:55:01;;;;;;;;;28.67;27.67;;;;;23.85;70.71;100781.54;109780;1268;18325;-50
2022/06/30 07:57:29;;;;;;;;;29.33;28.00;;;;;23.95;70.21;100775.95;109449;1270;18564;-50
2022/06/30 08:00:09;;;;;;;;;28.00;26.33;;;;;23.92;70.09;100773.39;110228;1268;19028;-52
2022/06/30 08:02:37;;;;;;;;;29.67;26.00;;;;;24.18;68.98;100767.67;109771;1267;18308;-52
2022/06/30 08:05:05;;;;;;;;;30.00;27.67;;;;;24.40;68.35;100767.05;109821;1268;18601;-51
2022/06/30 08:07:32;;;;;;;;;29.67;25.67;;;;;24.49;67.69;100762.38;109572;1268;18777;-50
2022/06/30 08:10:00;;;;;;;;;29.00;29.00;;;;;24.51;67.46;100763.39;110124;1264;21906;-50
2022/06/30 08:12:27;;;;;;;;;25.00;23.33;;;;;24.51;67.38;100754.78;110222;1264;18637;-50
2022/06/30 08:14:54;;;;;;;;;30.33;27.67;;;;;24.54;67.16;100754.80;110232;1264;19008;-51
2022/06/30 08:17:22;;;;;;;;;27.67;26.00;;;;;24.57;66.92;100755.20;110217;1266;19718;-48
2022/06/30 08:19:49;;;;;;;;;28.33;27.00;;;;;24.60;67.02;100751.55;110301;1264;18712;-48
2022/06/30 08:22:16;;;;;;;;;26.33;25.00;;;;;24.69;66.78;100751.72;110172;1266;18759;-50
2022/06/30 08:24:44;;;;;;;;;26.00;24.33;;;;;24.77;66.35;100753.20;110231;1264;18340;-51
2022/06/30 08:27:11;;;;;;;;;25.00;25.00;;;;;24.80;66.37;100761.73;110127;1267;18532;-49
2022/06/30 08:29:39;;;;;;;;;23.00;22.00;;;;;24.72;66.40;100762.45;110224;1264;19237;-49
2022/06/30 08:32:06;;;;;;;;;27.00;26.00;;;;;24.78;66.05;100755.27;110207;1264;18246;-49
2022/06/30 08:34:33;;;;;;;;;26.67;25.67;;;;;24.85;65.89;100760.55;110304;1265;22118;-54
2022/06/30 08:37:01;;;;;;;;;30.50;27.00;;;;;24.88;65.60;100763.46;110205;1267;19157;-52
2022/06/30 08:42:13;;;;;;;;;31.50;27.00;;;;;24.91;65.01;100763.02;110182;1268;18725;-52
2022/06/30 08:44:40;;;;;;;;;24.67;22.67;;;;;24.93;64.83;100761.13;110269;1264;18730;-52
2022/06/30 08:47:08;;;;;;;;;24.33;24.33;;;;;24.88;64.84;100755.86;110316;1265;18260;-49
2022/06/30 08:49:36;;;;;;;;;27.00;23.00;;;;;24.92;64.79;100751.55;110259;1264;18519;-53
2022/06/30 08:52:03;;;;;;;;;29.00;26.50;;;;;25.00;64.67;100751.35;110247;1264;21865;-51
2022/06/30 08:54:31;;;;;;;;;27.00;23.67;;;;;25.06;64.41;100753.89;110274;1264;18399;-52
2022/06/30 08:56:58;;;;;;;;;27.00;23.00;;;;;25.15;64.03;100755.54;110271;1265;18965;-50
2022/06/30 08:59:25;;;;;;;;;26.33;24.33;;;;;25.17;63.76;100762.17;110294;1265;18921;-51
2022/06/30 09:01:54;;;;;;;;;26.00;24.00;;;;;25.13;63.87;100763.46;110259;1264;18276;-51
2022/06/30 09:04:22;;;;;;;;;31.00;25.00;;;;;25.07;64.26;100756.83;110290;1264;18542;-52
2022/06/30 09:06:49;;;;;;;;;26.33;26.00;;;;;25.13;64.28;100755.24;110290;1264;18772;-51
2022/06/30 09:09:17;;;;;;;;;25.67;25.00;;;;;25.22;64.09;100750.50;110275;1264;19245;-52
2022/06/30 09:11:44;;;;;;;;;27.00;26.00;;;;;25.33;63.79;100745.77;110279;1264;21889;-51
2022/06/30 09:14:12;;;;;;;;;29.00;26.50;;;;;25.38;63.56;100739.95;110198;1267;21923;-50
2022/06/30 09:16:41;;;;;;;;;29.00;25.50;;;;;25.44;63.62;100743.05;110246;1264;18292;-51
2022/06/30 09:19:08;;;;;;;;;28.00;27.00;;;;;25.47;63.99;100736.89;110188;1267;18583;-51
2022/06/30 09:21:35;;;;;;;;;30.00;29.00;;;;;25.55;64.03;100732.64;110147;1268;19376;-55
2022/06/30 09:24:03;;;;;;;;;32.67;31.33;;;;;25.62;64.12;100727.88;110183;1267;18296;-49
2022/06/30 09:26:30;;;;;;;;;31.00;27.00;;;;;25.54;64.14;100730.06;110302;1264;18701;-50
2022/06/30 09:28:58;;;;;;;;;30.33;28.67;;;;;25.49;64.47;100726.21;110272;1264;18816;-51
2022/06/30 09:31:25;;;;;;;;;31.00;28.00;;;;;25.60;64.48;100717.61;110077;1267;22088;-50
2022/06/30 09:33:53;;;;;;;;;33.00;30.33;;;;;25.80;64.25;100710.46;110269;1264;18633;-52
2022/06/30 09:36:20;;;;;;;;;35.00;28.00;;;;;25.91;63.76;100709.11;110106;1267;19988;-48
2022/06/30 09:38:48;;;;;;;;;28.00;25.67;;;;;25.83;63.75;100702.66;110269;1264;21000;-50
2022/06/30 09:41:15;;;;;;;;;30.00;28.33;;;;;25.77;63.70;100704.27;110344;1265;20221;-52
2022/06/30 09:43:43;;;;;;;;;32.33;28.67;;;;;25.66;63.92;100695.35;110259;1264;19355;-50
2022/06/30 09:46:10;;;;;;;;;34.67;32.67;;;;;25.69;64.31;100703.48;110177;1264;19443;-50
2022/06/30 09:48:37;;;;;;;;;34.50;30.50;;;;;25.74;64.03;100704.16;110223;1265;18908;-53
2022/06/30 09:51:05;;;;;;;;;32.67;26.00;;;;;25.61;64.33;100698.40;110203;1264;19609;-50
2022/06/30 09:53:32;;;;;;;;;32.00;29.50;;;;;25.77;64.25;100696.70;110296;1264;19215;-53
2022/06/30 09:55:59;;;;;;;;;35.00;28.67;;;;;25.87;64.42;100690.40;110267;1265;21123;-51
2022/06/30 09:58:27;;;;;;;;;30.33;29.67;;;;;26.00;64.19;100692.85;110166;1267;18783;-52
2022/06/30 10:00:54;;;;;;;;;33.00;31.00;;;;;26.09;63.97;100689.70;110229;1264;18237;-52
2022/06/30 10:03:22;;;;;;;;;34.00;30.00;;;;;26.19;64.00;100686.66;110169;1267;19397;-51
2022/06/30 10:05:49;;;;;;;;;30.00;28.00;;;;;26.39;63.80;100677.45;110233;1264;20242;-49
2022/06/30 10:08:17;;;;;;;;;31.67;30.00;;;;;26.42;63.75;100677.79;110127;1264;23535;-51
2022/06/30 10:10:44;;;;;;;;;32.00;30.33;;;;;26.48;63.72;100678.48;110186;1264;18674;-50
2022/06/30 10:13:11;;;;;;;;;33.33;29.00;;;;;26.49;63.10;100681.27;110063;1264;18725;-52
2022/06/30 10:15:39;;;;;;;;;31.00;30.00;;;;;26.57;62.54;100675.61;110214;1264;20493;-51
2022/06/30 10:18:06;;;;;;;;;32.00;27.00;;;;;26.67;61.90;100679.90;110089;1265;18716;-52
2022/06/30 10:20:38;;;;;;;;;32.33;30.00;;;;;26.71;61.31;100675.19;110053;1267;20695;-51
2022/06/30 10:23:05;;;;;;;;;32.50;30.00;;;;;26.75;61.28;100669.50;109995;1265;18281;-49
2022/06/30 10:25:33;;;;;;;;;30.00;28.00;;;;;26.62;61.53;100667.48;110044;1265;18732;-57
2022/06/30 10:28:00;;;;;;;;;35.67;30.00;;;;;26.56;61.94;100663.73;110204;1264;18798;-50
2022/06/30 10:30:27;;;;;;;;;32.67;28.00;;;;;26.55;62.03;100662.77;110199;1264;18278;-51
2022/06/30 10:32:55;;;;;;;;;32.00;30.00;;;;;26.60;62.12;100665.20;110107;1265;18685;-51
2022/06/30 10:35:22;;;;;;;;;32.00;29.67;;;;;26.88;61.78;100657.88;110227;1264;18785;-54
2022/06/30 10:37:50;;;;;;;;;34.00;31.00;;;;;26.99;61.73;100653.17;110110;1264;18209;-51
2022/06/30 10:40:17;;;;;;;;;31.00;27.50;;;;;27.06;61.60;100651.24;110010;1265;19242;-51
2022/06/30 10:42:44;;;;;;;;;29.33;27.33;;;;;26.98;61.88;100649.89;110164;1264;18778;-49
2022/06/30 10:45:12;;;;;;;;;31.00;30.00;;;;;27.07;62.04;100642.90;110182;1264;18205;-52
2022/06/30 10:47:39;;;;;;;;;29.33;27.00;;;;;27.16;61.56;100636.88;110042;1265;19398;-52
2022/06/30 10:50:06;;;;;;;;;32.00;31.00;;;;;27.10;61.83;100634.55;110187;1265;18979;-51
2022/06/30 10:52:34;;;;;;;;;33.00;32.00;;;;;27.13;61.99;100640.16;110156;1264;19804;-51
2022/06/30 10:55:01;;;;;;;;;36.00;32.00;;;;;27.18;62.06;100639.16;110135;1265;19344;-54
2022/06/30 10:57:29;;;;;;;;;39.00;32.00;;;;;27.25;61.95;100640.47;110146;1264;18815;-51
2022/06/30 10:59:56;;;;;;;;;37.50;34.50;;;;;27.24;62.15;100636.20;110092;1265;21573;-51
2022/06/30 11:02:25;;;;;;;;;37.33;33.67;;;;;27.27;62.39;100635.41;110262;1264;18865;-55
2022/06/30 11:04:52;;;;;;;;;39.67;35.00;;;;;27.30;62.58;100628.03;110009;1264;21966;-54
2022/06/30 11:07:19;;;;;;;;;34.50;32.00;;;;;27.19;62.89;100625.48;110016;1264;18372;-53
2022/06/30 11:09:47;;;;;;;;;38.00;33.00;;;;;27.16;63.12;100621.83;110097;1264;19191;-51
2022/06/30 11:12:15;;;;;;;;;39.67;35.00;;;;;27.09;63.23;100619.49;110062;1267;18833;-52
2022/06/30 11:14:42;;;;;;;;;42.67;35.67;;;;;27.11;63.53;100623.06;110227;1265;18335;-51
2022/06/30 11:17:10;;;;;;;;;36.67;35.00;;;;;27.37;63.30;100621.48;110256;1265;20137;-51
2022/06/30 11:19:37;;;;;;;;;42.00;36.00;;;;;27.34;63.27;100621.67;110240;1264;18854;-51
2022/06/30 11:22:04;;;;;;;;;39.33;35.67;;;;;27.31;63.52;100624.00;110121;1264;22040;-51
2022/06/30 11:24:32;;;;;;;;;36.00;34.00;;;;;27.28;63.55;100616.69;110183;1264;18680;-52
2022/06/30 11:27:22;;;;;;;;;43.67;36.33;;;;;27.21;63.63;100614.85;110224;1264;19035;-49
2022/06/30 11:29:49;;;;;;;;;39.67;37.67;;;;;27.15;64.10;100611.08;110291;1265;18513;-50